Time;durP1;ratioP1;P1;durP2;ratioP2;P2;SDS_P1;SDS_P2;PMS_P1;PMS_P2;Temp;Humidity;BMP_temperature;BMP_pressure;BME280_temperature;BME280_humidity;BME280_pressure;Samples;Min_cycle;Max_cycle;Signal;HPM_P1;HPM_P2
2021/11/20 00:00:40;;;;;;;17.27;8.70;;;;;;;9.42;79.76;101328.52;1773079;81;21867;-79
2021/11/20 00:03:16;;;;;;;13.40;7.80;;;;;;;9.38;79.93;101324.56;1773169;80;21310;-77
2021/11/20 00:05:52;;;;;;;19.60;8.93;;;;;;;9.41;80.03;101328.75;1773486;80;21780;-90
2021/11/20 00:08:27;;;;;;;18.77;7.90;;;;;;;9.42;80.10;101329.91;1774845;80;21297;-78
2021/11/20 00:11:04;;;;;;;15.90;8.60;;;;;;;9.48;80.20;101328.13;1772653;79;21203;-80
2021/11/20 00:13:36;;;;;;;18.23;8.40;;;;;;;9.52;80.12;101338.50;1771445;80;21301;-81
2021/11/20 00:16:09;;;;;;;27.15;8.93;;;;;;;9.52;79.98;101330.19;1773655;79;21298;-82
2021/11/20 00:18:42;;;;;;;16.95;8.40;;;;;;;9.50;79.91;101326.81;1776875;77;21507;-79
2021/11/20 00:21:19;;;;;;;16.32;9.05;;;;;;;9.53;79.88;101324.94;1776556;78;21307;-75
2021/11/20 00:23:57;;;;;;;16.20;8.33;;;;;;;9.59;79.78;101326.76;1765417;79;21148;-81
2021/11/20 00:26:35;;;;;;;17.70;8.28;;;;;;;9.59;79.57;101324.52;1777367;78;21175;-79
2021/11/20 00:31:55;;;;;;;19.37;9.35;;;;;;;9.64;79.35;101309.40;1777499;78;21242;-79
2021/11/20 00:34:32;;;;;;;13.50;7.78;;;;;;;9.65;79.19;101315.23;1777183;78;21262;-77
2021/11/20 00:37:08;;;;;;;17.25;8.60;;;;;;;9.68;79.00;101304.52;1777660;78;21297;-80
2021/11/20 00:39:41;;;;;;;15.72;8.23;;;;;;;9.64;78.86;101307.48;1806669;78;21345;-78
2021/11/20 00:42:17;;;;;;;18.23;8.08;;;;;;;9.64;78.85;101305.24;1807858;78;21258;-80
2021/11/20 00:44:50;;;;;;;22.67;9.08;;;;;;;9.61;78.91;101304.35;1797034;78;21369;-77
2021/11/20 00:47:25;;;;;;;19.70;9.33;;;;;;;9.58;78.93;101299.27;1808915;78;21290;-76
2021/11/20 00:49:57;;;;;;;23.90;10.38;;;;;;;9.57;79.00;101294.28;1784930;78;21701;-82
2021/11/20 00:52:30;;;;;;;18.50;8.28;;;;;;;9.57;79.12;101294.28;1700072;84;21358;-76
2021/11/20 00:55:05;;;;;;;17.95;9.40;;;;;;;9.63;79.09;101299.40;1710524;82;21160;-76
2021/11/20 00:57:40;;;;;;;19.32;8.38;;;;;;;9.63;79.00;101293.33;1701917;84;21373;-76
2021/11/20 01:00:14;;;;;;;23.92;10.78;;;;;;;9.64;78.96;101290.84;1723236;82;21351;-72
2021/11/20 01:02:47;;;;;;;18.60;9.05;;;;;;;9.62;78.96;101284.67;1718414;83;21917;-76
2021/11/20 01:05:20;;;;;;;20.70;9.67;;;;;;;9.63;78.98;101283.63;1709315;82;21181;-76
2021/11/20 01:07:53;;;;;;;20.13;9.77;;;;;;;9.63;79.00;101293.33;1711118;83;21200;-82
2021/11/20 01:10:30;;;;;;;18.75;9.60;;;;;;;9.65;79.03;101287.52;1700025;83;21340;-75
2021/11/20 01:13:03;;;;;;;15.75;8.23;;;;;;;9.68;79.06;101292.04;1717520;83;22231;-81
2021/11/20 01:15:40;;;;;;;20.00;9.10;;;;;;;9.76;79.08;101285.30;1713589;84;21206;-77
2021/11/20 01:18:14;;;;;;;19.62;7.87;;;;;;;9.80;79.03;101275.42;1712961;82;21186;-78
2021/11/20 01:20:46;;;;;;;18.20;8.33;;;;;;;9.86;79.18;101276.67;1690940;84;21323;-82
2021/11/20 01:23:21;;;;;;;13.70;8.25;;;;;;;9.93;79.06;101273.79;1735469;82;21201;-83
2021/11/20 01:25:59;;;;;;;15.20;7.55;;;;;;;9.97;78.92;101268.89;1721016;83;21191;-83
2021/11/20 01:28:36;;;;;;;21.87;9.18;;;;;;;9.99;78.76;101258.95;1752039;81;21551;-74
2021/11/20 01:31:16;;;;;;;14.75;8.00;;;;;;;9.99;78.86;101254.26;1748936;80;21383;-84
2021/11/20 01:33:51;;;;;;;14.90;7.25;;;;;;;10.04;78.91;101255.77;1729947;83;21167;-85
2021/11/20 01:36:29;;;;;;;19.70;8.10;;;;;;;10.05;78.96;101252.46;1729205;83;21194;-77
2021/11/20 01:39:16;;;;;;;13.90;6.92;;;;;;;10.05;79.04;101246.91;1729340;78;21772;-72
2021/11/20 01:42:06;;;;;;;15.05;6.78;;;;;;;10.00;79.27;101247.63;1692393;83;21851;-82
2021/11/20 01:44:54;;;;;;;16.73;6.42;;;;;;;10.02;79.37;101251.52;1684082;85;21398;-80
2021/11/20 01:47:39;;;;;;;12.03;5.80;;;;;;;10.05;79.50;101253.85;1653078;86;21337;-84
2021/11/20 01:50:23;;;;;;;11.10;5.47;;;;;;;10.09;79.54;101248.13;1651498;85;21242;-82
2021/11/20 01:53:21;;;;;;;14.28;6.87;;;;;;;10.10;79.62;101240.92;1672088;85;21388;-85
2021/11/20 01:56:27;;;;;;;12.37;6.58;;;;;;;10.12;79.60;101246.23;1683607;84;21344;-76
2021/11/20 01:59:16;;;;;;;11.75;6.03;;;;;;;10.11;79.65;101241.25;1683660;85;21344;-81
2021/11/20 02:02:26;;;;;;;17.98;5.58;;;;;;;10.12;79.69;101244.31;1680465;85;21249;-76
2021/11/20 02:05:30;;;;;;;10.18;6.12;;;;;;;10.11;79.73;101235.70;1683538;85;21190;-81
2021/11/20 02:08:10;;;;;;;10.60;5.42;;;;;;;10.19;79.83;101230.30;1680577;85;21393;-75
2021/11/20 02:10:50;;;;;;;9.85;5.28;;;;;;;10.26;79.67;101233.23;1704403;80;21206;-88
2021/11/20 02:13:31;;;;;;;10.65;5.22;;;;;;;10.30;79.52;101233.06;1717920;82;21329;-88
2021/11/20 02:16:10;;;;;;;12.30;5.08;;;;;;;10.30;79.39;101223.87;1758497;81;21181;-87
2021/11/20 02:18:49;;;;;;;11.05;5.15;;;;;;;10.28;79.33;101226.89;1753142;79;21798;-85
2021/11/20 02:21:33;;;;;;;11.60;5.40;;;;;;;10.26;79.31;101215.20;1746007;82;21202;-84
2021/11/20 02:24:06;;;;;;;10.00;5.58;;;;;;;10.30;79.32;101207.23;1745572;82;21336;-84
2021/11/20 02:26:39;;;;;;;11.03;4.90;;;;;;;10.30;79.24;101208.08;1742058;80;21340;-87
2021/11/20 02:29:14;;;;;;;10.38;5.17;;;;;;;10.29;79.21;101211.09;1745789;80;21340;-79
2021/11/20 02:31:55;;;;;;;10.63;6.03;;;;;;;10.26;79.20;101204.10;1743510;80;21313;-83
2021/11/20 02:34:33;;;;;;;8.93;4.97;;;;;;;10.25;79.17;101202.95;1774191;81;21368;-88
2021/11/20 02:37:07;;;;;;;10.28;5.25;;;;;;;10.23;79.11;101207.38;1778044;81;21155;-87
2021/11/20 02:39:46;;;;;;;10.23;5.65;;;;;;;10.23;79.12;101202.36;1751823;79;21226;-87
2021/11/20 02:42:21;;;;;;;10.53;5.10;;;;;;;10.24;79.13;101207.67;1777496;81;21309;-78
2021/11/20 02:45:25;;;;;;;8.45;5.35;;;;;;;10.25;79.12;101205.19;1777237;81;21222;-84
2021/11/20 02:47:58;;;;;;;8.10;5.12;;;;;;;10.25;79.00;101196.87;1777062;81;21313;-87
2021/11/20 02:50:39;;;;;;;10.43;5.10;;;;;;;10.24;78.87;101188.78;1777408;79;21317;-85
2021/11/20 02:53:19;;;;;;;10.55;5.42;;;;;;;10.22;78.80;101186.80;1777756;81;21220;-90
2021/11/20 02:55:53;;;;;;;7.60;4.78;;;;;;;10.20;78.73;101182.02;1741961;82;21311;-79
2021/11/20 02:58:28;;;;;;;9.18;5.33;;;;;;;10.21;78.78;101185.95;1726210;80;21166;-80
2021/11/20 03:01:11;;;;;;;9.10;4.87;;;;;;;10.19;78.62;101181.73;1744535;82;21380;-74
2021/11/20 03:03:48;;;;;;;8.48;4.72;;;;;;;10.16;78.58;101173.35;1753129;79;21728;-82
2021/11/20 03:06:21;;;;;;;10.90;5.72;;;;;;;10.12;78.57;101173.57;1776632;79;21317;-80
2021/11/20 03:08:55;;;;;;;11.57;5.83;;;;;;;10.08;78.61;101170.98;1776793;81;21356;-85
2021/11/20 03:11:30;;;;;;;12.50;6.03;;;;;;;10.06;78.66;101171.78;1751605;81;21338;-86
2021/11/20 03:14:07;;;;;;;11.23;6.27;;;;;;;10.04;78.67;101177.27;1776268;81;21182;-84
2021/11/20 03:16:51;;;;;;;10.00;5.87;;;;;;;10.03;78.74;101184.73;1775682;81;21193;-83
2021/11/20 03:19:27;;;;;;;12.25;6.22;;;;;;;10.06;78.72;101174.55;1771911;81;21356;-82
2021/11/20 03:22:25;;;;;;;10.75;6.35;;;;;;;10.07;78.60;101164.28;1709401;82;21343;-82
2021/11/20 03:25:00;;;;;;;;;;;;;;;10.07;78.53;101162.36;1717670;82;21399;-85
2021/11/20 03:27:32;;;;;;;9.60;5.85;;;;;;;10.06;78.55;101157.91;1715391;83;20830;-84
2021/11/20 03:30:06;;;;;;;16.02;7.17;;;;;;;10.02;78.61;101153.89;1715429;83;21387;-82
2021/11/20 03:32:41;;;;;;;18.98;6.20;;;;;;;10.01;78.61;101148.59;1715726;82;21312;-83
2021/11/20 03:35:15;;;;;;;22.35;6.97;;;;;;;9.98;78.67;101145.75;1714732;82;21357;-78
2021/11/20 03:37:51;;;;;;;16.70;6.47;;;;;;;9.98;78.68;101149.91;1692880;83;21910;-77
2021/11/20 03:40:28;;;;;;;17.80;6.22;;;;;;;9.99;78.76;101150.24;1715389;82;21336;-84
2021/11/20 03:43:05;;;;;;;12.75;5.78;;;;;;;10.03;78.75;101142.27;1715310;82;21337;-81
2021/11/20 03:45:42;;;;;;;11.43;5.40;;;;;;;10.04;78.65;101143.41;1715312;82;21868;-82
2021/11/20 03:48:17;;;;;;;10.70;4.97;;;;;;;10.03;78.58;101137.58;1722802;82;21846;-85
2021/11/20 03:50:52;;;;;;;14.00;6.17;;;;;;;10.04;78.57;101134.27;1756780;82;21395;-84
2021/11/20 03:53:28;;;;;;;14.95;6.00;;;;;;;10.05;78.49;101135.95;1756905;80;21372;-83
2021/11/20 03:56:01;;;;;;;11.90;5.87;;;;;;;10.11;78.59;101133.58;1757501;80;21376;-86
2021/11/20 03:58:34;;;;;;;11.60;6.17;;;;;;;10.12;78.38;101137.50;1756612;80;21344;-85
2021/11/20 04:01:10;;;;;;;11.20;5.92;;;;;;;10.10;78.35;101141.05;1756620;82;21324;-85
2021/11/20 04:03:46;;;;;;;11.85;5.50;;;;;;;10.08;78.38;101137.69;1757114;80;21356;-88
2021/11/20 04:06:20;;;;;;;12.25;4.90;;;;;;;10.05;78.45;101130.41;1755998;82;21178;-83
2021/11/20 04:08:55;;;;;;;8.13;5.12;;;;;;;10.06;78.54;101134.33;1755340;82;21324;-83
2021/11/20 04:11:34;;;;;;;8.75;5.05;;;;;;;10.06;78.58;101139.88;1756410;80;21419;-86
2021/11/20 04:14:07;;;;;;;10.18;4.42;;;;;;;10.05;78.79;101135.42;1757114;80;21352;-85
2021/11/20 04:16:43;;;;;;;8.50;4.75;;;;;;;10.06;79.00;101132.94;1756049;80;21329;-82
2021/11/20 04:19:23;;;;;;;6.60;3.95;;;;;;;10.04;79.30;101141.20;1756164;82;21332;-83
2021/11/20 04:21:56;;;;;;;8.95;4.28;;;;;;;10.01;79.75;101141.65;1756576;82;21800;-74
2021/11/20 04:24:33;;;;;;;6.83;4.15;;;;;;;9.99;80.14;101139.15;1756198;82;21371;-80
2021/11/20 04:27:09;;;;;;;9.53;4.42;;;;;;;9.98;80.57;101144.37;1756122;82;21348;-81
2021/11/20 04:30:01;;;;;;;8.50;4.15;;;;;;;9.94;81.15;101138.17;1658101;86;21217;-82
2021/11/20 04:32:35;;;;;;;7.50;4.12;;;;;;;9.92;82.16;101138.41;1649356;86;21367;-83
2021/11/20 04:35:09;;;;;;;11.25;4.10;;;;;;;9.91;82.51;101134.52;1698523;79;21926;-79
2021/11/20 04:37:51;;;;;;;11.33;4.53;;;;;;;9.87;82.84;101131.40;1759330;80;21289;-75
2021/11/20 04:40:35;;;;;;;6.53;4.08;;;;;;;9.83;83.25;101128.80;1761061;82;21186;-80
2021/11/20 04:43:10;;;;;;;11.10;5.05;;;;;;;9.79;83.72;101123.44;1761186;81;21360;-75
2021/11/20 04:45:47;;;;;;;11.80;4.85;;;;;;;9.75;84.13;101126.42;1761137;82;21364;-80
2021/11/20 04:48:18;;;;;;;13.80;5.55;;;;;;;9.69;84.50;101123.24;1759519;82;21248;-84
2021/11/20 04:50:55;;;;;;;13.03;5.17;;;;;;;9.68;85.10;101123.48;1744981;80;21309;-84
2021/11/20 04:53:30;;;;;;;10.53;5.58;;;;;;;9.64;85.51;101112.04;1790234;80;21245;-79
2021/11/20 04:56:08;;;;;;;10.95;5.50;;;;;;;9.62;85.83;101100.33;1788651;80;21356;-80
2021/11/20 04:58:41;;;;;;;9.00;4.92;;;;;;;9.58;86.22;101108.86;1788010;80;21174;-80
2021/11/20 05:01:14;;;;;;;8.98;5.00;;;;;;;9.59;86.57;101104.99;1788073;79;21372;-81
2021/11/20 05:03:48;;;;;;;7.28;3.77;;;;;;;9.60;86.84;101108.63;1787667;80;21173;-85
2021/11/20 05:06:23;;;;;;;7.83;4.22;;;;;;;9.61;87.07;101105.58;1787215;80;21182;-79
2021/11/20 05:09:00;;;;;;;6.97;4.75;;;;;;;9.64;87.20;101099.56;1787232;80;21435;-85
2021/11/20 05:11:34;;;;;;;12.80;4.50;;;;;;;9.69;87.24;101100.20;1752948;80;21692;-85
2021/11/20 05:14:08;;;;;;;9.03;5.28;;;;;;;9.70;87.31;101097.73;1786918;80;21257;-82
2021/11/20 05:16:46;;;;;;;12.68;7.00;;;;;;;9.69;87.45;101096.05;1786826;80;21383;-86
2021/11/20 05:19:26;;;;;;;9.08;5.75;;;;;;;9.69;87.53;101101.06;1786807;80;21217;-84
2021/11/20 05:22:06;;;;;;;14.95;7.45;;;;;;;9.75;87.62;101094.54;1739593;80;21206;-85
2021/11/20 05:24:40;;;;;;;11.60;7.85;;;;;;;9.77;87.61;101110.91;1786597;80;21325;-80
2021/11/20 05:27:14;;;;;;;13.78;8.68;;;;;;;9.82;87.77;101109.63;1786674;80;21184;-85
2021/11/20 05:32:20;;;;;;;19.30;12.93;;;;;;;9.89;87.66;101113.95;1751878;82;21316;-78
2021/11/20 05:34:55;;;;;;;22.10;15.40;;;;;;;9.95;87.64;101121.83;1757561;81;21245;-79
2021/11/20 05:37:30;;;;;;;23.60;15.87;;;;;;;10.00;87.57;101117.25;1720441;82;21384;-78
2021/11/20 05:40:23;;;;;;;17.65;12.37;;;;;;;10.03;87.52;101118.16;1750491;81;21360;-78
2021/11/20 05:42:59;;;;;;;19.00;10.75;;;;;;;10.02;87.60;101117.83;1718663;82;21316;-80
2021/11/20 05:45:39;;;;;;;12.45;7.65;;;;;;;10.04;87.59;101126.77;1749421;82;21480;-82
2021/11/20 05:48:15;;;;;;;13.05;7.83;;;;;;;10.08;87.64;101125.73;1709259;83;21337;-84
2021/11/20 05:50:48;;;;;;;14.63;7.65;;;;;;;10.09;87.74;101123.28;1741734;82;21509;-79
2021/11/20 05:53:24;;;;;;;13.30;7.60;;;;;;;10.19;87.89;101130.41;1739605;82;21389;-81
2021/11/20 05:55:59;;;;;;;10.03;6.08;;;;;;;10.21;87.87;101124.08;1733575;83;21527;-84
2021/11/20 05:58:33;;;;;;;11.70;6.62;;;;;;;10.21;87.70;101123.52;1741152;82;21406;-76
2021/11/20 06:01:10;;;;;;;10.28;6.35;;;;;;;10.22;87.71;101129.92;1741168;82;21736;-78
2021/11/20 06:03:42;;;;;;;12.13;6.95;;;;;;;10.22;87.78;101132.70;1732239;83;21330;-83
2021/11/20 06:06:16;;;;;;;19.17;7.80;;;;;;;10.31;88.00;101132.05;1741683;82;21859;-82
2021/11/20 06:08:52;;;;;;;14.40;8.13;;;;;;;10.36;87.79;101129.91;1710752;82;21701;-79
2021/11/20 06:11:26;;;;;;;14.45;7.15;;;;;;;10.40;87.81;101134.71;1681886;84;21771;-82
2021/11/20 06:14:02;;;;;;;16.02;8.23;;;;;;;10.43;87.63;101131.98;1716242;82;21360;-78
2021/11/20 06:16:36;;;;;;;15.35;9.23;;;;;;;10.45;87.67;101137.59;1724942;83;21322;-76
2021/11/20 06:19:11;;;;;;;14.63;8.10;;;;;;;10.48;87.64;101149.60;1724709;83;21272;-75
2021/11/20 06:21:43;;;;;;;16.05;8.85;;;;;;;10.49;87.67;101136.02;1724817;81;21194;-77
2021/11/20 06:24:21;;;;;;;15.75;8.18;;;;;;;10.53;87.68;101145.50;1724807;83;21700;-78
2021/11/20 06:26:58;;;;;;;14.83;8.13;;;;;;;10.60;87.76;101145.36;1664951;85;21419;-80
2021/11/20 06:29:32;;;;;;;18.73;8.35;;;;;;;10.65;87.70;101135.18;1723522;83;21325;-83
2021/11/20 06:32:08;;;;;;;17.25;8.73;;;;;;;10.72;87.68;101140.59;1716220;83;21197;-80
2021/11/20 06:34:48;;;;;;;15.30;8.03;;;;;;;10.77;87.62;101144.28;1721827;82;21768;-80
2021/11/20 06:37:37;;;;;;;14.43;8.15;;;;;;;10.87;87.47;101146.39;1694169;83;21732;-78
2021/11/20 06:40:17;;;;;;;17.45;8.65;;;;;;;10.92;87.28;101154.83;1695889;84;21787;-85
2021/11/20 06:42:50;;;;;;;15.05;8.38;;;;;;;10.99;87.38;101152.19;1665317;84;21335;-81
2021/11/20 06:45:27;;;;;;;19.57;8.80;;;;;;;11.05;87.11;101152.56;1713513;82;21201;-81
2021/11/20 06:48:03;;;;;;;15.68;7.20;;;;;;;11.09;86.98;101150.98;1721884;82;21408;-74
2021/11/20 06:50:41;;;;;;;12.05;7.53;;;;;;;11.11;86.81;101148.78;1725847;82;21347;-83
2021/11/20 06:53:32;;;;;;;12.80;7.53;;;;;;;11.19;86.85;101137.22;1656352;85;21934;-80
2021/11/20 06:56:28;;;;;;;13.88;8.13;;;;;;;11.29;86.83;101142.10;1713787;83;21201;-79
2021/11/20 07:01:56;;;;;;;11.18;7.03;;;;;;;11.46;86.38;101151.27;1552351;90;21307;-76
2021/11/20 07:04:34;;;;;;;14.75;6.00;;;;;;;11.56;86.19;101150.87;1650801;84;21340;-80
2021/11/20 07:07:13;;;;;;;11.80;6.87;;;;;;;11.69;85.84;101150.53;1715784;83;21360;-79
2021/11/20 07:09:49;;;;;;;11.33;7.08;;;;;;;11.78;85.42;101155.10;1687999;84;21357;-78
2021/11/20 07:12:26;;;;;;;10.72;6.67;;;;;;;11.84;85.12;101147.98;1721033;83;21392;-80
2021/11/20 07:15:01;;;;;;;12.43;7.67;;;;;;;11.88;84.86;101149.16;1711466;83;21435;-80
2021/11/20 07:17:36;;;;;;;10.45;6.90;;;;;;;11.94;84.61;101150.91;1700884;82;21230;-82
2021/11/20 07:20:11;;;;;;;13.68;7.50;;;;;;;12.00;84.37;101151.27;1707213;82;21257;-83
2021/11/20 07:23:09;;;;;;;15.40;7.87;;;;;;;12.10;84.22;101156.11;1712670;82;21185;-83
2021/11/20 07:25:47;;;;;;;12.90;7.22;;;;;;;12.25;83.91;101146.55;1712512;83;21925;-83
2021/11/20 07:28:22;;;;;;;12.37;6.75;;;;;;;12.39;83.52;101145.88;1711910;82;21388;-80
2021/11/20 07:30:56;;;;;;;15.25;7.83;;;;;;;12.48;82.99;101148.48;1712120;84;21361;-81
2021/11/20 07:33:29;;;;;;;13.38;6.87;;;;;;;12.57;82.73;101148.31;1710191;84;21278;-80
2021/11/20 07:36:04;;;;;;;13.22;7.12;;;;;;;12.81;82.21;101137.67;1709318;84;21203;-83
2021/11/20 07:38:45;;;;;;;12.53;6.87;;;;;;;12.81;82.21;101137.67;1705212;82;21356;-81
2021/11/20 07:41:18;;;;;;;12.70;6.90;;;;;;;12.97;81.61;101152.91;1712289;84;21344;-80
2021/11/20 07:43:52;;;;;;;11.12;7.08;;;;;;;13.12;81.08;101143.84;1710180;81;21222;-82
2021/11/20 07:46:28;;;;;;;12.18;6.97;;;;;;;13.18;80.36;101146.41;1706335;84;21250;-81
2021/11/20 07:49:01;;;;;;;11.90;6.55;;;;;;;13.23;80.07;101142.82;1708995;82;21230;-84
2021/11/20 07:51:36;;;;;;;13.05;6.83;;;;;;;13.28;79.57;101149.84;1711270;82;21749;-81
2021/11/20 07:54:11;;;;;;;14.45;6.65;;;;;;;13.34;78.64;101148.77;1709436;82;21167;-77
2021/11/20 07:57:07;;;;;;;13.90;6.50;;;;;;;13.41;78.59;101146.05;1710766;82;21863;-77
2021/11/20 07:59:41;;;;;;;13.28;7.22;;;;;;;13.53;77.78;101160.64;1710044;84;21403;-80
2021/11/20 08:02:32;;;;;;;10.38;6.72;;;;;;;13.53;77.78;101160.64;1704847;84;21439;-76
2021/11/20 08:05:06;;;;;;;;;;;;;;;13.58;77.28;101158.43;1711955;81;21373;-77
2021/11/20 08:07:45;;;;;;;10.25;6.35;;;;;;;13.61;77.15;101161.52;1707067;84;20279;-78
2021/11/20 08:10:20;;;;;;;16.55;6.60;;;;;;;13.64;76.77;101157.35;1706159;84;21171;-77
2021/11/20 08:12:58;;;;;;;13.70;6.78;;;;;;;13.69;76.61;101160.19;1706655;82;21257;-79
2021/11/20 08:15:39;;;;;;;10.90;6.20;;;;;;;13.77;76.38;101166.64;1712797;82;21863;-77
2021/11/20 08:18:20;;;;;;;11.85;6.95;;;;;;;13.81;75.74;101154.66;1702562;82;21255;-77
2021/11/20 08:21:25;;;;;;;11.60;6.10;;;;;;;13.88;75.44;101165.02;1701907;82;21223;-75
2021/11/20 08:23:59;;;;;;;10.40;5.55;;;;;;;13.91;74.46;101151.08;1702572;82;21429;-79
2021/11/20 08:26:37;;;;;;;16.07;7.97;;;;;;;13.91;74.46;101151.08;1702258;82;21210;-75
2021/11/20 08:29:20;;;;;;;14.58;7.60;;;;;;;14.01;74.39;101152.00;1702924;82;21401;-79
2021/11/20 08:31:53;;;;;;;13.18;7.58;;;;;;;14.11;74.05;101144.22;1707169;82;21325;-77
2021/11/20 08:34:31;;;;;;;11.05;7.40;;;;;;;14.14;73.77;101145.91;1700045;82;21907;-74
2021/11/20 08:37:06;;;;;;;17.77;6.92;;;;;;;14.17;73.31;101144.53;1694706;82;21725;-78
2021/11/20 08:39:41;;;;;;;11.85;5.78;;;;;;;14.17;72.81;101148.14;1700936;82;21187;-80
2021/11/20 08:42:15;;;;;;;23.02;12.07;;;;;;;14.20;72.35;101139.81;1707722;82;21349;-77
2021/11/20 08:44:58;;;;;;;15.53;8.10;;;;;;;14.20;72.26;101139.27;1708961;82;21337;-82
2021/11/20 08:47:34;;;;;;;9.48;5.35;;;;;;;14.23;72.05;101133.12;1701997;82;21406;-85
2021/11/20 08:50:13;;;;;;;9.35;4.55;;;;;;;14.21;71.62;101131.16;1699442;84;21223;-80
2021/11/20 08:52:44;;;;;;;10.13;5.25;;;;;;;14.24;71.53;101139.55;1699238;84;21382;-76
2021/11/20 08:58:17;;;;;;;9.53;3.85;;;;;;;14.36;70.94;101140.16;1707093;84;21181;-84
2021/11/20 09:00:59;;;;;;;9.78;4.15;;;;;;;14.43;70.78;101120.59;1709730;84;21329;-85
2021/11/20 09:04:11;;;;;;;5.92;4.37;;;;;;;14.43;70.78;101120.59;1708956;84;21388;-80
2021/11/20 09:07:00;;;;;;;12.47;4.17;;;;;;;14.44;70.01;101115.32;1703222;82;21348;-77
2021/11/20 09:09:44;;;;;;;10.08;4.83;;;;;;;14.46;69.29;101110.28;1707110;84;21419;-83
2021/11/20 09:12:33;;;;;;;8.93;3.52;;;;;;;14.47;69.21;101116.16;1706504;82;21358;-81
2021/11/20 09:15:17;;;;;;;6.35;3.20;;;;;;;14.50;69.36;101111.42;1700720;82;21338;-80
2021/11/20 09:17:55;;;;;;;6.65;3.65;;;;;;;14.60;69.27;101106.41;1695860;83;21398;-81
2021/11/20 09:20:32;;;;;;;9.35;4.03;;;;;;;14.66;69.05;101099.71;1724136;79;21269;-81
2021/11/20 09:23:07;;;;;;;12.35;3.25;;;;;;;14.69;68.10;101105.59;1687266;83;21771;-83
2021/11/20 09:25:41;;;;;;;8.13;3.25;;;;;;;14.75;67.58;101098.89;1710421;83;21193;-73
2021/11/20 09:28:18;;;;;;;5.28;3.75;;;;;;;14.78;67.83;101089.92;1713409;83;21196;-80
2021/11/20 09:30:58;;;;;;;6.30;3.22;;;;;;;14.80;68.05;101086.86;1715873;83;21672;-83
2021/11/20 09:33:31;;;;;;;5.50;3.50;;;;;;;14.82;67.75;101086.86;1724639;83;21173;-77
2021/11/20 09:36:04;;;;;;;5.70;3.67;;;;;;;14.85;67.31;101065.32;1712440;83;21335;-83
2021/11/20 09:39:07;;;;;;;11.85;3.70;;;;;;;14.92;67.36;101065.05;1718533;83;21356;-84
2021/11/20 09:42:02;;;;;;;29.85;4.60;;;;;;;14.97;67.15;101056.67;1717617;81;21201;-80
2021/11/20 09:44:43;;;;;;;7.70;3.67;;;;;;;14.98;67.42;101057.77;1711670;83;21379;-81
2021/11/20 09:47:23;;;;;;;9.53;3.37;;;;;;;15.04;67.50;101053.84;1719112;83;21346;-75
2021/11/20 09:49:59;;;;;;;6.42;3.80;;;;;;;15.09;67.32;101054.42;1724423;83;21481;-81
2021/11/20 09:52:33;;;;;;;6.00;3.17;;;;;;;15.12;66.64;101051.90;1724184;83;21194;-82
2021/11/20 09:55:08;;;;;;;5.53;3.05;;;;;;;15.13;66.49;101054.97;1723591;83;21225;-86
2021/11/20 09:57:49;;;;;;;9.68;3.67;;;;;;;15.17;66.32;101056.64;1721192;82;21229;-81
2021/11/20 10:01:03;;;;;;;5.75;3.30;;;;;;;15.18;66.01;101038.19;1715147;82;21194;-78
2021/11/20 10:03:47;;;;;;;12.10;4.70;;;;;;;15.13;65.90;101057.77;1721804;82;21375;-75
2021/11/20 10:06:32;;;;;;;11.12;3.47;;;;;;;15.07;66.18;101039.31;1718404;83;21842;-78
2021/11/20 10:09:25;;;;;;;7.50;3.45;;;;;;;15.04;66.09;101048.25;1717447;83;21209;-80
2021/11/20 10:12:13;;;;;;;23.05;4.15;;;;;;;15.03;65.93;101046.58;1700441;83;21176;-80
2021/11/20 10:15:05;;;;;;;6.60;2.67;;;;;;;15.02;65.74;101032.90;1709863;83;21378;-75
2021/11/20 10:17:52;;;;;;;21.65;2.87;;;;;;;15.03;65.37;101042.38;1722886;82;21367;-78
2021/11/20 10:20:38;;;;;;;7.58;2.87;;;;;;;15.03;65.13;101027.00;1720670;82;21735;-75
2021/11/20 10:23:45;;;;;;;6.33;2.83;;;;;;;15.03;65.08;101031.77;1671481;84;21733;-77
2021/11/20 10:26:32;;;;;;;10.72;3.52;;;;;;;15.00;65.13;101032.32;1663053;84;21219;-76
2021/11/20 10:29:33;;;;;;;9.68;2.95;;;;;;;14.92;65.13;101032.31;1666956;85;21282;-75
2021/11/20 10:32:11;;;;;;;7.30;3.10;;;;;;;14.92;65.13;101032.31;1610507;84;21923;-76
2021/11/20 10:34:54;;;;;;;7.42;3.52;;;;;;;14.90;65.59;101041.56;1666967;86;21215;-76
2021/11/20 10:37:42;;;;;;;13.75;3.05;;;;;;;14.90;65.59;101041.56;1667018;84;21240;-74
2021/11/20 10:40:49;;;;;;;12.58;2.87;;;;;;;14.88;65.98;101042.41;1666854;86;21339;-73
2021/11/20 10:43:42;;;;;;;9.63;3.45;;;;;;;14.86;66.43;101040.43;1667229;84;21243;-75
2021/11/20 10:46:31;;;;;;;13.83;4.10;;;;;;;14.82;67.10;101032.89;1684713;84;21344;-72
2021/11/20 10:49:41;;;;;;;14.23;3.33;;;;;;;14.81;67.65;101035.41;1682779;84;21197;-75
2021/11/20 10:52:59;;;;;;;6.65;2.87;;;;;;;14.73;67.88;101031.78;1685619;84;21760;-74
2021/11/20 10:55:56;;;;;;;9.03;2.58;;;;;;;14.61;68.44;101036.23;1679831;84;21352;-75
2021/11/20 10:59:20;;;;;;;11.43;3.45;;;;;;;14.55;68.68;101035.13;1685882;84;21242;-72
2021/11/20 11:02:22;;;;;;;49.88;9.78;;;;;;;14.50;68.94;101027.59;1685307;84;21202;-73
2021/11/20 11:05:31;;;;;;;5.67;3.70;;;;;;;14.48;68.74;101027.01;1684914;84;21444;-75
2021/11/20 11:08:23;;;;;;;6.97;3.65;;;;;;;14.51;68.78;101023.67;1676535;84;21202;-74
2021/11/20 11:11:01;;;;;;;5.90;3.87;;;;;;;14.53;68.41;101024.22;1684611;84;21843;-76
2021/11/20 11:14:08;;;;;;;8.40;3.25;;;;;;;14.53;68.34;101011.65;1689065;84;21198;-74
2021/11/20 11:16:52;;;;;;;11.70;7.45;;;;;;;14.55;67.98;101007.19;1570938;91;21936;-80
2021/11/20 11:20:00;;;;;;;11.80;5.87;;;;;;;14.56;67.73;101004.13;1584057;88;21243;-76
2021/11/20 11:22:56;;;;;;;10.35;4.85;;;;;;;14.60;67.99;101004.41;1598778;88;21218;-75
2021/11/20 11:25:31;;;;;;;15.90;4.55;;;;;;;14.59;67.64;100992.91;1593418;87;21275;-79
2021/11/20 11:28:35;;;;;;;17.02;4.67;;;;;;;14.59;65.09;101002.16;1616283;87;21242;-80
2021/11/20 11:31:32;;;;;;;15.08;4.50;;;;;;;14.65;64.86;101002.43;1611580;88;21320;-80
2021/11/20 11:34:27;;;;;;;8.68;5.17;;;;;;;14.77;63.78;100996.00;1613345;87;21293;-74
2021/11/20 11:37:23;;;;;;;10.88;3.85;;;;;;;14.77;63.78;100996.00;1582519;87;21234;-75
2021/11/20 11:40:33;;;;;;;18.73;5.60;;;;;;;14.79;63.19;100992.35;1614384;88;21381;-80
2021/11/20 11:43:33;;;;;;;12.28;4.78;;;;;;;14.79;63.44;100991.53;1694240;83;21396;-76
2021/11/20 11:46:25;;;;;;;9.95;5.05;;;;;;;14.77;63.69;100996.00;1733050;81;21190;-77
2021/11/20 11:49:29;;;;;;;9.83;5.10;;;;;;;14.76;63.59;100997.13;1736603;81;21223;-72
2021/11/20 11:52:43;;;;;;;17.67;5.60;;;;;;;14.71;63.51;100985.09;1731055;81;21324;-78
2021/11/20 11:55:33;;;;;;;10.58;5.22;;;;;;;14.70;63.30;100981.47;1721338;82;21336;-74
2021/11/20 11:58:33;;;;;;;11.30;4.62;;;;;;;14.67;63.41;100994.59;1706749;83;21228;-78
2021/11/20 12:01:14;;;;;;;13.00;4.50;;;;;;;14.64;63.23;100986.78;1718429;83;21395;-78
2021/11/20 12:04:17;;;;;;;8.13;4.30;;;;;;;14.59;63.15;100975.60;1726048;83;21378;-74
2021/11/20 12:06:55;;;;;;;10.98;4.58;;;;;;;14.54;63.40;100994.34;1712714;83;21400;-75
2021/11/20 12:09:33;;;;;;;31.30;6.17;;;;;;;14.52;63.58;100988.17;1714082;83;21203;-80
2021/11/20 12:12:39;;;;;;;15.43;5.30;;;;;;;14.51;63.66;100986.50;1717216;83;21233;-76
2021/11/20 12:15:20;;;;;;;8.65;4.87;;;;;;;14.47;62.56;100994.60;1657740;86;21865;-79
2021/11/20 12:18:35;;;;;;;16.27;5.42;;;;;;;14.41;62.85;101005.49;1687625;83;22027;-77
2021/11/20 12:21:21;;;;;;;12.43;4.40;;;;;;;14.41;62.92;101009.69;1680215;84;21347;-80
2021/11/20 12:24:10;;;;;;;9.38;4.25;;;;;;;14.41;63.14;101013.88;1692356;83;21411;-81
2021/11/20 12:26:52;;;;;;;9.98;5.70;;;;;;;14.47;63.19;101023.94;1557893;92;21246;-79
2021/11/20 12:29:50;;;;;;;12.98;6.42;;;;;;;14.51;63.07;101026.47;1542809;92;21259;-83
2021/11/20 12:33:02;;;;;;;18.65;6.67;;;;;;;14.58;62.84;101015.00;1552960;92;21225;-89
2021/11/20 12:35:46;;;;;;;11.45;5.35;;;;;;;14.65;62.59;101018.34;1548289;92;21299;-81
2021/11/20 12:39:04;;;;;;;17.62;6.50;;;;;;;14.68;62.19;101018.66;1546196;92;21340;-76